Time;durP1;ratioP1;P1;durP2;ratioP2;P2;SDS_P1;SDS_P2;PMS_P1;PMS_P2;Temp;Humidity;BMP_temperature;BMP_pressure;BME280_temperature;BME280_humidity;BME280_pressure;Samples;Min_cycle;Max_cycle;Signal;HPM_P1;HPM_P2
2022/03/01 00:02:16;;;;;;;0.00;0.00;;;5.40;59.90;;;;;;4136740;28;20464;-72
2022/03/01 00:04:41;;;;;;;0.00;0.00;;;5.40;60.20;;;;;;4136676;28;20054;-72
2022/03/01 00:07:05;;;;;;;0.00;0.00;;;5.30;60.30;;;;;;4150290;28;20056;-75
2022/03/01 00:09:32;;;;;;;0.00;0.00;;;5.30;60.30;;;;;;4136661;28;20343;-72
2022/03/01 00:11:58;;;;;;;0.00;0.00;;;5.20;60.40;;;;;;4136808;28;20473;-72
2022/03/01 00:14:20;;;;;;;0.00;0.00;;;5.10;60.40;;;;;;4136061;28;20059;-73
2022/03/01 00:16:43;;;;;;;0.00;0.00;;;5.20;60.50;;;;;;4150434;28;20538;-74
2022/03/01 00:19:05;;;;;;;0.00;0.00;;;5.20;60.40;;;;;;4150114;28;20046;-70
2022/03/01 00:21:31;;;;;;;0.00;0.00;;;5.20;60.50;;;;;;4150256;28;20046;-73
2022/03/01 00:23:58;;;;;;;0.00;0.00;;;5.20;60.70;;;;;;4150988;28;20400;-71
2022/03/01 00:26:28;;;;;;;0.00;0.00;;;5.10;61.40;;;;;;4149447;28;20539;-74
2022/03/01 00:28:53;;;;;;;0.00;0.00;;;5.00;61.80;;;;;;4150738;28;20089;-70
2022/03/01 00:31:17;;;;;;;0.00;0.00;;;5.00;61.70;;;;;;4150192;28;20053;-72
2022/03/01 00:33:42;;;;;;;0.00;0.00;;;5.10;61.80;;;;;;4150096;28;20061;-72
2022/03/01 00:36:05;;;;;;;0.00;0.00;;;5.10;61.70;;;;;;4149398;28;20140;-69
2022/03/01 00:38:28;;;;;;;0.00;0.00;;;5.20;61.90;;;;;;4149882;28;20046;-71
2022/03/01 00:40:51;;;;;;;0.00;0.00;;;5.10;62.00;;;;;;4123220;28;20113;-73
2022/03/01 00:43:21;;;;;;;0.00;0.00;;;5.10;62.10;;;;;;4136295;28;20448;-72
2022/03/01 00:45:43;;;;;;;0.00;0.00;;;5.10;62.50;;;;;;4149575;28;20464;-70
2022/03/01 00:48:09;;;;;;;0.00;0.00;;;5.10;62.80;;;;;;4149166;28;20132;-71
2022/03/01 00:50:34;;;;;;;0.00;0.00;;;5.10;63.00;;;;;;4135850;28;20046;-71
2022/03/01 00:53:01;;;;;;;0.00;0.00;;;5.10;63.10;;;;;;4149973;28;20054;-70
2022/03/01 00:55:23;;;;;;;0.00;0.00;;;5.00;63.20;;;;;;4149165;28;20384;-73
2022/03/01 00:57:45;;;;;;;0.00;0.00;;;5.00;63.20;;;;;;4135980;28;20054;-73
2022/03/01 01:00:09;;;;;;;0.00;0.00;;;5.10;63.30;;;;;;4148848;28;20049;-71
2022/03/01 01:02:41;;;;;;;0.00;0.00;;;5.10;63.40;;;;;;4149785;28;20046;-74
2022/03/01 01:05:07;;;;;;;0.00;0.00;;;5.10;63.20;;;;;;4149765;28;20050;-72
2022/03/01 01:07:32;;;;;;;0.00;0.00;;;5.10;63.00;;;;;;4122293;28;20113;-73
2022/03/01 01:10:00;;;;;;;0.00;0.00;;;5.00;62.90;;;;;;4150403;28;20133;-74
2022/03/01 01:12:27;;;;;;;0.00;0.00;;;5.00;62.70;;;;;;4148907;28;20045;-73
2022/03/01 01:14:55;;;;;;;0.00;0.00;;;5.00;62.60;;;;;;4150482;28;20045;-74
2022/03/01 01:17:22;;;;;;;0.00;0.00;;;4.90;62.30;;;;;;4135868;28;20042;-72
2022/03/01 01:19:45;;;;;;;0.00;0.00;;;4.90;62.10;;;;;;4149871;28;20046;-70
2022/03/01 01:24:56;;;;;;;0.00;0.00;;;4.90;61.40;;;;;;4149901;28;20141;-74
2022/03/01 01:27:36;;;;;;;0.00;0.00;;;4.90;61.10;;;;;;4149757;28;20049;-73
2022/03/01 01:30:09;;;;;;;0.00;0.00;;;4.90;61.10;;;;;;4148980;28;20045;-71
2022/03/01 01:32:49;;;;;;;0.00;0.00;;;4.80;61.10;;;;;;4126891;28;20046;-70
2022/03/01 01:35:26;;;;;;;0.00;0.00;;;4.80;61.10;;;;;;4149701;28;20085;-72
2022/03/01 01:37:52;;;;;;;0.00;0.00;;;4.80;61.00;;;;;;4135749;28;20128;-73
2022/03/01 01:40:30;;;;;;;0.00;0.00;;;4.80;61.20;;;;;;4149235;28;20132;-71
2022/03/01 01:42:54;;;;;;;0.00;0.00;;;4.70;61.40;;;;;;4135242;28;20527;-74
2022/03/01 01:45:32;;;;;;;0.00;0.00;;;4.60;61.60;;;;;;4148962;28;20053;-72
2022/03/01 01:47:58;;;;;;;0.00;0.00;;;4.60;61.60;;;;;;4135052;28;20062;-73
2022/03/01 01:50:35;;;;;;;0.00;0.00;;;4.60;61.60;;;;;;4149080;28;20045;-72
2022/03/01 01:52:59;;;;;;;0.00;0.00;;;4.60;61.50;;;;;;4135168;28;20821;-70
2022/03/01 01:55:35;;;;;;;0.00;0.00;;;4.50;61.40;;;;;;4149153;28;20487;-74
2022/03/01 01:58:08;;;;;;;0.00;0.00;;;4.60;61.50;;;;;;4132132;28;20054;-75
2022/03/01 02:00:30;;;;;;;0.00;0.00;;;4.60;61.50;;;;;;4148765;28;20475;-75
2022/03/01 02:02:54;;;;;;;0.00;0.00;;;4.60;61.40;;;;;;4148525;28;20082;-71
2022/03/01 02:05:20;;;;;;;0.00;0.00;;;4.60;61.30;;;;;;4148647;28;20049;-73
2022/03/01 02:07:54;;;;;;;0.00;0.00;;;4.60;61.00;;;;;;4149196;28;20046;-72
2022/03/01 02:10:27;;;;;;;0.00;0.00;;;4.60;61.00;;;;;;4148765;28;20053;-70
2022/03/01 02:12:56;;;;;;;0.00;0.00;;;4.60;61.10;;;;;;4148091;28;20042;-73
2022/03/01 02:15:37;;;;;;;0.00;0.00;;;4.50;61.20;;;;;;4149156;28;20057;-74
2022/03/01 02:18:23;;;;;;;0.00;0.00;;;4.50;61.10;;;;;;4148663;28;20084;-73
2022/03/01 02:20:52;;;;;;;0.00;0.00;;;4.40;61.20;;;;;;4149024;28;20046;-73
2022/03/01 02:23:29;;;;;;;0.00;0.00;;;4.20;61.20;;;;;;4148344;28;20049;-73
2022/03/01 02:26:03;;;;;;;0.00;0.00;;;4.10;61.30;;;;;;4148287;28;20141;-71
2022/03/01 02:28:37;;;;;;;0.00;0.00;;;4.10;61.40;;;;;;4147542;28;20124;-72
2022/03/01 02:31:04;;;;;;;0.00;0.00;;;4.00;61.50;;;;;;4148207;28;20155;-74
2022/03/01 02:33:26;;;;;;;0.00;0.00;;;3.90;61.60;;;;;;4120761;28;20093;-72
2022/03/01 02:35:51;;;;;;;0.00;0.00;;;3.90;61.70;;;;;;4148093;28;20100;-74
2022/03/01 02:38:13;;;;;;;0.00;0.00;;;3.90;61.80;;;;;;4132519;28;20042;-72
2022/03/01 02:40:37;;;;;;;0.00;0.00;;;4.00;61.80;;;;;;4131893;28;20469;-70
2022/03/01 02:43:05;;;;;;;0.00;0.00;;;4.10;61.80;;;;;;4139580;28;20049;-72
2022/03/01 02:45:29;;;;;;;0.00;0.00;;;4.10;61.60;;;;;;4148063;28;20527;-70
2022/03/01 02:47:54;;;;;;;0.00;0.00;;;4.10;61.70;;;;;;4148260;28;20107;-72
2022/03/01 02:50:16;;;;;;;0.00;0.00;;;4.10;61.70;;;;;;4133967;28;20100;-71
2022/03/01 02:52:41;;;;;;;0.00;0.00;;;4.00;61.70;;;;;;4134380;28;20109;-73
2022/03/01 02:55:05;;;;;;;0.00;0.00;;;4.10;61.70;;;;;;4134868;28;20432;-70
2022/03/01 02:57:27;;;;;;;0.00;0.00;;;4.10;61.50;;;;;;4148122;28;20046;-74
2022/03/01 02:59:51;;;;;;;0.00;0.00;;;4.10;61.30;;;;;;4148117;28;20057;-73
2022/03/01 03:02:15;;;;;;;0.00;0.00;;;4.10;61.20;;;;;;4132678;28;20135;-71
2022/03/01 03:04:40;;;;;;;0.00;0.00;;;4.10;61.20;;;;;;4134317;28;20428;-71
2022/03/01 03:07:05;;;;;;;0.00;0.00;;;4.10;61.30;;;;;;4148091;28;20088;-73
2022/03/01 03:09:30;;;;;;;0.00;0.00;;;4.10;61.30;;;;;;4147857;28;20045;-73
2022/03/01 03:11:54;;;;;;;0.00;0.00;;;4.10;61.30;;;;;;4147816;28;20061;-75
2022/03/01 03:14:21;;;;;;;0.00;0.00;;;4.10;61.40;;;;;;4133774;28;20085;-74
2022/03/01 03:16:46;;;;;;;0.00;0.00;;;4.10;61.40;;;;;;4133950;28;20484;-73
2022/03/01 03:19:10;;;;;;;0.00;0.00;;;4.10;61.40;;;;;;4147617;28;20069;-75
2022/03/01 03:21:35;;;;;;;0.00;0.00;;;4.00;61.30;;;;;;4147803;28;20046;-73
2022/03/01 03:24:02;;;;;;;0.00;0.00;;;4.00;61.50;;;;;;4148974;28;20049;-74
2022/03/01 03:26:24;;;;;;;0.00;0.00;;;3.90;61.60;;;;;;4137413;28;20155;-72
2022/03/01 03:28:48;;;;;;;0.00;0.00;;;3.90;61.70;;;;;;4137290;28;20129;-75
2022/03/01 03:31:15;;;;;;;0.00;0.00;;;3.90;61.70;;;;;;4137775;28;20144;-75
2022/03/01 03:33:44;;;;;;;0.00;0.00;;;3.90;61.80;;;;;;4137378;28;20058;-73
2022/03/01 03:36:06;;;;;;;0.00;0.00;;;3.80;62.10;;;;;;4136704;28;20097;-72
2022/03/01 03:38:30;;;;;;;0.00;0.00;;;3.80;62.40;;;;;;4137718;28;20054;-72
2022/03/01 03:40:57;;;;;;;0.00;0.00;;;3.80;62.50;;;;;;4137221;28;20123;-72
2022/03/01 03:43:20;;;;;;;0.00;0.00;;;3.80;63.00;;;;;;4137190;28;20049;-72
2022/03/01 03:45:45;;;;;;;0.00;0.00;;;3.80;63.10;;;;;;4150736;28;20064;-72
2022/03/01 03:48:09;;;;;;;0.00;0.00;;;3.80;63.40;;;;;;4136774;28;20104;-71
2022/03/01 03:50:34;;;;;;;0.00;0.00;;;3.70;63.50;;;;;;4137802;28;20048;-74
2022/03/01 03:52:56;;;;;;;0.00;0.00;;;3.70;63.60;;;;;;4150775;28;20049;-73
2022/03/01 03:55:20;;;;;;;0.00;0.00;;;3.80;63.70;;;;;;4150423;28;20042;-75
2022/03/01 03:57:42;;;;;;;0.00;0.00;;;3.80;63.80;;;;;;4150566;28;20048;-71
2022/03/01 04:00:15;;;;;;;0.00;0.00;;;3.80;63.70;;;;;;4136543;28;20093;-73
2022/03/01 04:02:39;;;;;;;0.00;0.00;;;3.70;63.70;;;;;;4137927;28;20048;-72
2022/03/01 04:05:04;;;;;;;0.00;0.00;;;3.70;63.80;;;;;;4137056;28;20070;-71
2022/03/01 04:07:26;;;;;;;0.00;0.00;;;3.60;63.90;;;;;;4136967;28;20038;-73
2022/03/01 04:09:48;;;;;;;0.00;0.00;;;3.60;64.10;;;;;;4150295;28;20138;-72
2022/03/01 04:12:12;;;;;;;0.00;0.00;;;3.60;64.30;;;;;;4149769;28;20100;-72
2022/03/01 04:14:36;;;;;;;0.00;0.00;;;3.60;64.50;;;;;;4150592;28;20075;-73
2022/03/01 04:16:58;;;;;;;0.00;0.00;;;3.50;64.60;;;;;;4136712;28;20065;-72
2022/03/01 04:19:22;;;;;;;0.00;0.00;;;3.50;64.90;;;;;;4150470;28;20548;-72
2022/03/01 04:21:50;;;;;;;0.00;0.00;;;3.60;65.00;;;;;;4150393;28;20132;-74
2022/03/01 04:24:14;;;;;;;0.00;0.00;;;3.60;64.90;;;;;;4123391;28;20061;-72
2022/03/01 04:26:41;;;;;;;0.00;0.00;;;3.60;64.90;;;;;;4136913;28;20042;-72
2022/03/01 04:29:05;;;;;;;0.00;0.00;;;3.60;64.80;;;;;;4128797;28;20050;-72
2022/03/01 04:31:29;;;;;;;0.00;0.00;;;3.40;65.10;;;;;;4145234;28;20093;-72
2022/03/01 04:33:54;;;;;;;0.00;0.00;;;3.20;65.60;;;;;;4136700;28;20064;-74
2022/03/01 04:36:18;;;;;;;0.00;0.00;;;3.10;65.90;;;;;;4135066;28;20055;-73
2022/03/01 04:38:43;;;;;;;0.00;0.00;;;3.10;65.90;;;;;;4150740;28;20068;-70
2022/03/01 04:41:05;;;;;;;0.00;0.00;;;3.10;65.70;;;;;;4109925;28;20489;-73
2022/03/01 04:43:28;;;;;;;0.00;0.00;;;3.10;65.60;;;;;;4150107;28;20109;-75
2022/03/01 04:45:52;;;;;;;0.00;0.00;;;3.20;65.40;;;;;;4136636;28;20448;-71
2022/03/01 04:48:17;;;;;;;0.00;0.00;;;3.30;65.30;;;;;;4134730;28;20105;-71
2022/03/01 04:50:39;;;;;;;0.00;0.00;;;3.30;65.20;;;;;;4149993;28;20104;-72
2022/03/01 04:53:06;;;;;;;0.00;0.00;;;3.20;65.20;;;;;;4150117;28;20038;-72
2022/03/01 04:55:28;;;;;;;0.00;0.00;;;3.20;65.40;;;;;;4136452;28;20046;-73
2022/03/01 04:57:52;;;;;;;0.00;0.00;;;3.10;65.60;;;;;;4136683;28;20046;-75
2022/03/01 05:00:15;;;;;;;0.00;0.00;;;3.00;66.00;;;;;;4136105;28;20042;-72
2022/03/01 05:02:43;;;;;;;0.00;0.00;;;3.00;66.10;;;;;;4136335;28;20129;-72
2022/03/01 05:05:10;;;;;;;0.00;0.00;;;3.00;66.20;;;;;;4136435;28;20053;-72
2022/03/01 05:07:32;;;;;;;0.00;0.00;;;3.00;66.20;;;;;;4150070;28;20096;-72
2022/03/01 05:09:56;;;;;;;0.00;0.00;;;3.00;66.40;;;;;;4149911;28;20511;-73
2022/03/01 05:12:20;;;;;;;0.00;0.00;;;3.10;66.40;;;;;;4135745;28;20519;-70
2022/03/01 05:14:42;;;;;;;0.00;0.00;;;2.80;66.90;;;;;;4136152;28;20109;-73
2022/03/01 05:17:07;;;;;;;0.00;0.00;;;2.70;67.20;;;;;;4149690;28;20070;-74
2022/03/01 05:19:31;;;;;;;0.00;0.00;;;2.80;67.30;;;;;;4149685;28;20104;-73
2022/03/01 05:21:54;;;;;;;0.00;0.00;;;2.90;67.00;;;;;;4149428;28;20555;-71
2022/03/01 05:24:16;;;;;;;0.00;0.00;;;2.90;67.60;;;;;;4135819;28;20042;-71
2022/03/01 05:26:39;;;;;;;0.00;0.00;;;2.90;66.90;;;;;;4133238;28;20060;-73
2022/03/01 05:29:02;;;;;;;0.00;0.00;;;3.00;66.70;;;;;;4140977;28;20542;-74
2022/03/01 05:31:29;;;;;;;0.00;0.00;;;3.00;66.50;;;;;;4149365;28;20056;-72
2022/03/01 05:33:52;;;;;;;0.00;0.00;;;3.10;66.20;;;;;;4149558;28;20069;-72
2022/03/01 05:36:17;;;;;;;0.00;0.00;;;2.90;66.20;;;;;;4134241;28;20073;-73
2022/03/01 05:38:42;;;;;;;0.00;0.00;;;2.80;66.20;;;;;;4135706;28;20097;-71
2022/03/01 05:41:08;;;;;;;0.00;0.00;;;2.80;66.10;;;;;;4149585;28;20049;-70
2022/03/01 05:43:32;;;;;;;0.00;0.00;;;2.70;66.00;;;;;;4149225;28;20046;-72
2022/03/01 05:45:55;;;;;;;0.00;0.00;;;2.70;66.00;;;;;;4122158;28;20409;-72
2022/03/01 05:48:17;;;;;;;0.00;0.00;;;2.70;65.80;;;;;;4120668;28;20054;-71
2022/03/01 05:50:41;;;;;;;0.00;0.00;;;2.80;65.50;;;;;;4133217;28;20054;-72
2022/03/01 05:53:03;;;;;;;0.00;0.00;;;2.80;65.40;;;;;;4141067;28;20050;-69
2022/03/01 05:55:28;;;;;;;0.00;0.00;;;2.80;65.40;;;;;;4135290;28;20082;-71
2022/03/01 05:57:50;;;;;;;0.00;0.00;;;2.90;65.30;;;;;;4149003;28;20108;-73
2022/03/01 06:00:15;;;;;;;0.00;0.00;;;2.80;65.30;;;;;;4133519;28;20054;-72
2022/03/01 06:02:38;;;;;;;0.00;0.00;;;2.80;65.30;;;;;;4135452;28;20102;-73
2022/03/01 06:05:05;;;;;;;0.00;0.00;;;2.90;65.30;;;;;;4135402;28;20412;-72
2022/03/01 06:07:32;;;;;;;0.00;0.00;;;3.10;65.30;;;;;;4135660;28;20492;-72
2022/03/01 06:09:54;;;;;;;0.00;0.00;;;3.10;65.20;;;;;;4134682;28;20042;-73
2022/03/01 06:12:18;;;;;;;0.00;0.00;;;3.10;65.60;;;;;;4119419;28;20047;-72
2022/03/01 06:14:44;;;;;;;0.00;0.00;;;3.10;65.80;;;;;;4122008;28;20042;-72
2022/03/01 06:17:09;;;;;;;0.00;0.00;;;3.00;66.30;;;;;;4148363;28;20050;-71
2022/03/01 06:19:31;;;;;;;0.00;0.00;;;3.00;66.40;;;;;;4121641;28;20046;-74
2022/03/01 06:21:56;;;;;;;0.00;0.00;;;3.10;66.70;;;;;;4135228;28;20054;-72
2022/03/01 06:24:18;;;;;;;0.00;0.00;;;3.10;66.70;;;;;;4134523;28;20063;-72
2022/03/01 06:26:50;;;;;;;0.00;0.00;;;3.10;66.80;;;;;;4120130;28;20122;-72
2022/03/01 06:29:15;;;;;;;0.00;0.00;;;3.20;67.00;;;;;;4148135;28;20129;-74
2022/03/01 06:31:37;;;;;;;0.00;0.00;;;3.30;67.30;;;;;;4134528;28;20042;-74
2022/03/01 06:34:03;;;;;;;0.00;0.00;;;3.50;67.10;;;;;;4148356;28;20046;-73
2022/03/01 06:36:26;;;;;;;0.00;0.00;;;3.70;67.10;;;;;;4134441;28;20054;-75
2022/03/01 06:38:50;;;;;;;0.00;0.00;;;3.80;66.90;;;;;;4148269;28;20053;-72
2022/03/01 06:41:12;;;;;;;0.00;0.00;;;3.90;66.80;;;;;;4121595;28;20377;-73
2022/03/01 06:43:34;;;;;;;0.00;0.00;;;4.10;66.80;;;;;;4148236;28;20465;-72
2022/03/01 06:45:58;;;;;;;0.00;0.00;;;4.30;66.60;;;;;;4121206;28;20054;-74
2022/03/01 06:48:23;;;;;;;0.00;0.00;;;4.50;66.50;;;;;;4134321;28;20108;-76
2022/03/01 06:50:45;;;;;;;0.00;0.00;;;4.60;66.30;;;;;;4134748;28;20353;-74
2022/03/01 06:53:14;;;;;;;0.00;0.00;;;4.60;66.20;;;;;;4148175;28;20052;-72
2022/03/01 06:55:36;;;;;;;0.00;0.00;;;4.80;66.00;;;;;;4134296;28;20058;-72
2022/03/01 06:58:00;;;;;;;0.00;0.00;;;5.00;65.60;;;;;;4134407;28;20077;-72
2022/03/01 07:00:22;;;;;;;0.00;0.00;;;5.20;65.40;;;;;;4147594;28;20050;-75
2022/03/01 07:02:44;;;;;;;0.00;0.00;;;5.30;65.30;;;;;;4148396;28;20396;-72
2022/03/01 07:05:09;;;;;;;0.00;0.00;;;5.40;65.60;;;;;;4134624;28;20042;-72
2022/03/01 07:07:34;;;;;;;0.00;0.00;;;5.30;65.10;;;;;;4134650;28;20050;-72
2022/03/01 07:10:00;;;;;;;0.00;0.00;;;5.50;65.10;;;;;;4121446;28;20054;-72
2022/03/01 07:12:25;;;;;;;0.00;0.00;;;5.50;64.80;;;;;;4134044;28;20078;-73
2022/03/01 07:14:47;;;;;;;0.00;0.00;;;5.80;64.70;;;;;;4146161;28;20034;-72
2022/03/01 07:17:11;;;;;;;0.00;0.00;;;6.10;64.30;;;;;;4138860;28;20108;-73
2022/03/01 07:19:38;;;;;;;0.00;0.00;;;6.20;63.70;;;;;;4145245;28;20052;-74
2022/03/01 07:22:00;;;;;;;0.00;0.00;;;6.00;63.60;;;;;;4145520;28;20100;-74
2022/03/01 07:24:24;;;;;;;0.00;0.00;;;6.00;63.70;;;;;;4142670;28;20054;-74
2022/03/01 07:26:46;;;;;;;0.00;0.00;;;5.90;63.90;;;;;;4131886;28;20042;-73
2022/03/01 07:29:08;;;;;;;0.00;0.00;;;6.30;63.60;;;;;;4118015;28;20082;-75
2022/03/01 07:31:35;;;;;;;0.00;0.00;;;6.70;62.70;;;;;;4105022;28;20081;-74
2022/03/01 07:33:59;;;;;;;0.00;0.00;;;6.50;61.60;;;;;;4131396;28;20050;-73
2022/03/01 07:36:24;;;;;;;0.00;0.00;;;6.60;61.90;;;;;;4115756;28;20074;-73
2022/03/01 07:38:46;;;;;;;0.00;0.00;;;7.00;61.20;;;;;;4115941;28;20042;-75
2022/03/01 07:41:10;;;;;;;0.00;0.00;;;7.30;59.90;;;;;;4102423;28;20106;-73
2022/03/01 07:43:37;;;;;;;0.00;0.00;;;7.60;59.30;;;;;;4115843;28;20055;-74
2022/03/01 07:46:03;;;;;;;0.00;0.00;;;7.70;58.40;;;;;;4129176;28;20043;-75
2022/03/01 07:48:25;;;;;;;0.00;0.00;;;7.60;58.70;;;;;;4116069;28;20059;-73
2022/03/01 07:50:50;;;;;;;0.00;0.00;;;7.80;58.40;;;;;;4105151;28;20405;-72
2022/03/01 07:53:14;;;;;;;0.00;0.00;;;8.10;57.90;;;;;;4131973;28;20047;-74
2022/03/01 07:55:41;;;;;;;0.00;0.00;;;8.20;57.30;;;;;;4131655;28;20116;-75
2022/03/01 07:58:06;;;;;;;0.00;0.00;;;8.00;57.00;;;;;;4104771;28;20059;-73
2022/03/01 08:00:30;;;;;;;0.00;0.00;;;8.30;57.30;;;;;;4104917;28;20058;-73
2022/03/01 08:02:53;;;;;;;0.00;0.00;;;7.90;56.80;;;;;;4104662;28;20059;-73
2022/03/01 08:05:18;;;;;;;0.00;0.00;;;8.00;57.80;;;;;;4131405;28;20062;-72
2022/03/01 08:07:45;;;;;;;0.00;0.00;;;8.60;57.10;;;;;;4131489;28;20073;-72
2022/03/01 08:10:08;;;;;;;0.00;0.00;;;9.10;56.20;;;;;;4118747;28;20047;-77
2022/03/01 08:12:35;;;;;;;0.00;0.00;;;9.50;55.30;;;;;;4118756;28;20046;-76
2022/03/01 08:14:59;;;;;;;0.00;0.00;;;9.80;53.80;;;;;;4104848;28;20101;-74
2022/03/01 08:17:24;;;;;;;0.00;0.00;;;9.90;53.70;;;;;;4121018;28;20531;-75
2022/03/01 08:19:49;;;;;;;0.00;0.00;;;9.50;53.00;;;;;;4134195;28;20175;-73
2022/03/01 08:22:12;;;;;;;0.00;0.00;;;9.60;53.90;;;;;;4133935;28;20050;-75
2022/03/01 08:24:34;;;;;;;0.00;0.00;;;9.90;52.80;;;;;;4120516;28;20043;-75
2022/03/01 08:26:59;;;;;;;0.00;0.00;;;9.70;53.40;;;;;;4120431;28;20054;-73
2022/03/01 08:29:23;;;;;;;0.00;0.00;;;10.10;52.80;;;;;;4134227;28;20042;-77
2022/03/01 08:31:46;;;;;;;0.00;0.00;;;10.60;52.20;;;;;;4120445;28;20126;-75
2022/03/01 08:34:11;;;;;;;0.00;0.00;;;10.80;51.60;;;;;;4123001;28;20473;-76
2022/03/01 08:36:34;;;;;;;0.00;0.00;;;10.90;50.60;;;;;;4150059;28;20536;-75
2022/03/01 08:38:58;;;;;;;0.00;0.00;;;10.20;49.70;;;;;;4150447;28;20057;-76
2022/03/01 08:41:27;;;;;;;0.00;0.00;;;10.30;49.60;;;;;;4149887;28;20111;-76
2022/03/01 08:43:49;;;;;;;0.00;0.00;;;9.60;49.40;;;;;;4136160;28;20038;-76
2022/03/01 08:46:13;;;;;;;0.00;0.00;;;9.70;49.90;;;;;;4136025;28;20037;-74
2022/03/01 08:48:40;;;;;;;0.00;0.00;;;10.20;50.80;;;;;;4123252;28;20050;-75
2022/03/01 08:51:02;;;;;;;0.00;0.00;;;11.00;49.70;;;;;;4150171;28;20045;-76
2022/03/01 08:53:25;;;;;;;0.00;0.00;;;11.00;48.20;;;;;;4136175;28;20052;-75
2022/03/01 08:55:49;;;;;;;0.00;0.00;;;10.20;48.30;;;;;;4149520;28;20514;-75
2022/03/01 08:58:12;;;;;;;0.00;0.00;;;10.40;48.30;;;;;;4107084;28;20051;-76
2022/03/01 09:00:34;;;;;;;0.00;0.00;;;11.10;48.30;;;;;;4149853;28;20077;-74
2022/03/01 09:02:57;;;;;;;0.00;0.00;;;11.50;48.40;;;;;;4149693;28;20088;-76
2022/03/01 09:05:21;;;;;;;0.00;0.00;;;12.10;48.20;;;;;;4149590;28;20050;-71
2022/03/01 09:07:51;;;;;;;0.00;0.00;;;11.90;48.00;;;;;;4123449;28;20050;-73
2022/03/01 09:10:21;;;;;;;0.00;0.00;;;11.20;49.40;;;;;;4135345;28;20065;-73
2022/03/01 09:12:43;;;;;;;0.00;0.00;;;11.20;49.30;;;;;;4149563;28;20052;-73
2022/03/01 09:15:14;;;;;;;0.00;0.00;;;11.90;48.60;;;;;;4136118;28;20046;-73
2022/03/01 09:17:36;;;;;;;0.00;0.00;;;12.30;47.70;;;;;;4149483;28;20085;-73
2022/03/01 09:19:58;;;;;;;0.00;0.00;;;12.70;47.30;;;;;;4149425;28;20116;-74
2022/03/01 09:22:22;;;;;;;0.00;0.00;;;12.60;46.40;;;;;;4121781;28;20125;-73
2022/03/01 09:24:47;;;;;;;0.00;0.00;;;11.50;47.50;;;;;;4136123;28;20108;-78
2022/03/01 09:27:16;;;;;;;0.00;0.00;;;10.80;48.60;;;;;;4135795;28;20074;-74
2022/03/01 09:29:44;;;;;;;0.00;0.00;;;10.40;49.30;;;;;;4149403;28;20046;-76
2022/03/01 09:32:08;;;;;;;0.00;0.00;;;10.20;50.10;;;;;;4135346;28;20404;-74
2022/03/01 09:34:30;;;;;;;0.00;0.00;;;10.30;49.60;;;;;;4135482;28;20038;-73
2022/03/01 09:36:53;;;;;;;0.00;0.00;;;11.00;49.10;;;;;;4149325;28;20056;-74
2022/03/01 09:39:18;;;;;;;0.00;0.00;;;11.10;48.20;;;;;;4148944;28;20041;-73
2022/03/01 09:41:40;;;;;;;0.00;0.00;;;10.90;47.70;;;;;;4135539;28;20049;-75
2022/03/01 09:44:05;;;;;;;0.00;0.00;;;10.70;48.40;;;;;;4135463;28;20054;-72
2022/03/01 09:46:29;;;;;;;0.00;0.00;;;10.40;49.30;;;;;;4134940;28;20042;-74
2022/03/01 09:48:51;;;;;;;0.00;0.00;;;10.10;49.70;;;;;;4135775;28;20042;-73
2022/03/01 09:51:19;;;;;;;0.00;0.00;;;10.40;49.40;;;;;;4135411;28;20054;-74
2022/03/01 09:53:42;;;;;;;0.00;0.00;;;10.40;48.90;;;;;;4122002;28;20112;-75
2022/03/01 09:56:05;;;;;;;0.00;0.00;;;10.60;48.50;;;;;;4121603;28;20420;-71
2022/03/01 09:58:27;;;;;;;0.00;0.00;;;11.10;47.30;;;;;;4121891;28;20042;-72
2022/03/01 10:00:49;;;;;;;0.00;0.00;;;11.30;46.90;;;;;;4149062;28;20330;-74
2022/03/01 10:03:16;;;;;;;0.00;0.00;;;10.90;47.10;;;;;;4148829;28;20132;-73
2022/03/01 10:05:41;;;;;;;0.00;0.00;;;10.30;48.40;;;;;;4135408;28;20104;-75
2022/03/01 10:08:29;;;;;;;0.00;0.00;;;10.50;48.60;;;;;;4148103;28;20057;-74
2022/03/01 10:10:54;;;;;;;0.00;0.00;;;10.70;48.80;;;;;;4135082;28;20057;-73
2022/03/01 10:13:32;;;;;;;0.00;0.00;;;11.10;48.20;;;;;;4134811;28;20054;-76
2022/03/01 10:16:10;;;;;;;0.00;0.00;;;11.60;47.10;;;;;;4122333;28;20492;-71
2022/03/01 10:18:40;;;;;;;0.00;0.00;;;11.60;47.00;;;;;;4136614;28;20054;-71
2022/03/01 10:21:13;;;;;;;0.00;0.00;;;12.20;46.70;;;;;;4148902;28;20115;-72
2022/03/01 10:23:46;;;;;;;0.00;0.00;;;13.30;45.30;;;;;;4125314;28;20046;-75
2022/03/01 10:26:13;;;;;;;0.00;0.00;;;13.70;44.60;;;;;;4118536;28;20082;-72
2022/03/01 10:28:37;;;;;;;0.00;0.00;;;13.60;43.40;;;;;;4118796;28;20509;-73
2022/03/01 10:31:22;;;;;;;0.00;0.00;;;12.80;44.80;;;;;;4131843;28;20054;-73
2022/03/01 10:34:00;;;;;;;0.00;0.00;;;13.80;44.50;;;;;;4131558;28;20054;-72
2022/03/01 10:36:24;;;;;;;0.00;0.00;;;14.90;43.10;;;;;;4131644;28;20067;-72
2022/03/01 10:38:57;;;;;;;0.00;0.00;;;15.40;41.70;;;;;;4145616;28;20457;-74
2022/03/01 10:41:24;;;;;;;0.00;0.00;;;15.70;41.10;;;;;;4118461;28;20057;-73
2022/03/01 10:43:54;;;;;;;0.00;0.00;;;16.30;40.80;;;;;;4131925;28;20089;-73
2022/03/01 10:46:17;;;;;;;0.00;0.00;;;16.60;39.80;;;;;;4117145;28;20054;-75
2022/03/01 10:48:42;;;;;;;0.00;0.00;;;16.90;39.20;;;;;;4118549;28;20071;-73
2022/03/01 10:51:08;;;;;;;0.00;0.00;;;15.90;38.60;;;;;;4131354;28;20058;-72
2022/03/01 10:53:49;;;;;;;0.00;0.00;;;16.20;39.60;;;;;;4131861;28;20085;-71
2022/03/01 10:56:16;;;;;;;0.00;0.00;;;17.10;39.00;;;;;;4131582;28;20060;-73
2022/03/01 10:58:41;;;;;;;0.00;0.00;;;17.00;37.50;;;;;;4131800;28;20066;-72
2022/03/01 11:01:06;;;;;;;0.00;0.00;;;17.10;38.10;;;;;;4131926;28;20061;-73
2022/03/01 11:03:30;;;;;;;0.00;0.00;;;17.30;37.10;;;;;;4132152;28;20057;-74
2022/03/01 11:05:58;;;;;;;0.00;0.00;;;15.90;37.20;;;;;;4118221;28;20050;-77
2022/03/01 11:08:28;;;;;;;0.00;0.00;;;15.40;38.90;;;;;;4131443;28;20097;-73
2022/03/01 11:11:00;;;;;;;0.00;0.00;;;16.30;37.90;;;;;;4118408;28;20146;-75
2022/03/01 11:13:25;;;;;;;0.00;0.00;;;17.40;36.20;;;;;;4131611;28;20088;-76
2022/03/01 11:16:03;;;;;;;0.00;0.00;;;18.10;35.70;;;;;;4118321;28;20165;-74
2022/03/01 11:19:02;;;;;;;0.00;0.00;;;17.90;34.80;;;;;;4118430;28;20061;-75
2022/03/01 11:21:25;;;;;;;0.00;0.00;;;18.60;34.60;;;;;;4118533;28;20061;-74
2022/03/01 11:23:48;;;;;;;0.00;0.00;;;18.80;33.40;;;;;;4129250;28;20046;-73
2022/03/01 11:26:17;;;;;;;0.00;0.00;;;18.40;33.40;;;;;;4134509;28;20089;-72
2022/03/01 11:28:56;;;;;;;0.00;0.00;;;18.10;33.40;;;;;;4135437;28;20053;-74
2022/03/01 11:31:22;;;;;;;0.00;0.00;;;18.20;33.30;;;;;;4148044;28;20555;-72
2022/03/01 11:33:55;;;;;;;0.00;0.00;;;18.60;33.20;;;;;;4132268;28;20115;-74
2022/03/01 11:36:21;;;;;;;0.00;0.00;;;18.80;32.60;;;;;;4115391;28;20054;-73
2022/03/01 11:38:46;;;;;;;0.00;0.00;;;19.00;33.10;;;;;;4102366;28;20121;-72
2022/03/01 11:41:15;;;;;;;0.00;0.00;;;19.40;32.80;;;;;;4102445;28;20402;-74
2022/03/01 11:43:40;;;;;;;0.00;0.00;;;19.90;32.40;;;;;;4102313;28;20050;-74
2022/03/01 11:46:17;;;;;;;0.00;0.00;;;20.20;31.80;;;;;;4118304;28;20086;-74
2022/03/01 11:48:52;;;;;;;0.00;0.00;;;19.70;31.40;;;;;;4104009;28;20537;-72
2022/03/01 11:51:16;;;;;;;0.00;0.00;;;20.10;31.90;;;;;;4117639;28;20055;-73
2022/03/01 11:53:43;;;;;;;0.00;0.00;;;20.50;31.90;;;;;;4118456;28;20062;-72
2022/03/01 11:56:09;;;;;;;0.00;0.00;;;20.80;31.50;;;;;;4105013;28;20101;-72
2022/03/01 11:58:38;;;;;;;0.00;0.00;;;20.70;31.70;;;;;;4118987;28;20085;-73
2022/03/01 12:01:08;;;;;;;0.00;0.00;;;20.90;31.80;;;;;;4106125;28;20074;-72
2022/03/01 12:03:30;;;;;;;0.00;0.00;;;21.10;31.60;;;;;;4118521;28;20054;-73
2022/03/01 12:05:56;;;;;;;0.00;0.00;;;21.20;31.10;;;;;;4118455;28;20469;-73
2022/03/01 12:08:20;;;;;;;0.00;0.00;;;21.50;30.60;;;;;;4117896;28;20054;-75
2022/03/01 12:11:03;;;;;;;0.00;0.00;;;21.70;30.80;;;;;;4118209;28;20054;-72
2022/03/01 12:13:41;;;;;;;0.00;0.00;;;21.60;30.30;;;;;;4118270;28;20051;-70
2022/03/01 12:16:12;;;;;;;0.00;0.00;;;21.30;30.70;;;;;;4117997;28;20069;-72
2022/03/01 12:18:37;;;;;;;0.00;0.00;;;21.30;30.90;;;;;;4118123;28;20070;-74
2022/03/01 12:21:07;;;;;;;0.00;0.00;;;21.60;30.60;;;;;;4118250;28;20057;-73
2022/03/01 12:23:37;;;;;;;0.00;0.00;;;21.40;30.30;;;;;;4118130;28;20478;-73
2022/03/01 12:26:07;;;;;;;0.00;0.00;;;21.40;30.80;;;;;;4118336;28;20059;-73
2022/03/01 12:28:42;;;;;;;0.00;0.00;;;21.80;30.40;;;;;;4104640;28;20043;-73
2022/03/01 12:31:14;;;;;;;0.00;0.00;;;22.00;29.80;;;;;;4117996;28;20055;-74
2022/03/01 12:33:48;;;;;;;0.00;0.00;;;21.60;30.50;;;;;;4119354;28;20046;-75
2022/03/01 12:36:23;;;;;;;0.00;0.00;;;21.80;30.60;;;;;;4111977;28;20076;-72
2022/03/01 12:39:00;;;;;;;0.00;0.00;;;21.70;30.60;;;;;;4131422;28;20050;-74
2022/03/01 12:41:26;;;;;;;0.00;0.00;;;21.80;30.30;;;;;;4117923;28;20055;-71
2022/03/01 12:43:53;;;;;;;0.00;0.00;;;21.80;30.30;;;;;;4118078;28;20105;-73
2022/03/01 12:46:20;;;;;;;0.00;0.00;;;21.90;30.00;;;;;;4117475;28;20046;-73
2022/03/01 12:48:47;;;;;;;0.00;0.00;;;21.90;30.10;;;;;;4104548;28;20043;-72
2022/03/01 12:51:11;;;;;;;0.00;0.00;;;21.80;30.00;;;;;;4110156;28;20450;-73